createdAt,value
2017-10-31T00:00:00.276Z,69.48
2017-10-31T00:02:28.970Z,68.89
2017-10-31T00:04:58.631Z,69.33
2017-10-31T00:07:28.472Z,69.45
2017-10-31T00:09:56.756Z,70.00
2017-10-31T00:12:27.349Z,70.69
2017-10-31T00:14:55.763Z,70.68
2017-10-31T00:17:24.039Z,71.54
2017-10-31T00:19:52.124Z,71.92
2017-10-31T00:22:23.483Z,71.78
2017-10-31T00:24:53.015Z,71.76
2017-10-31T00:27:21.516Z,71.42
2017-10-31T00:29:49.987Z,71.06
2017-10-31T00:32:19.456Z,71.31
2017-10-31T00:34:47.705Z,71.18
2017-10-31T00:37:16.180Z,71.65
2017-10-31T00:39:45.555Z,70.86
2017-10-31T00:42:14.109Z,70.84
2017-10-31T00:44:42.539Z,71.59
2017-10-31T00:47:11.786Z,71.14
2017-10-31T00:49:39.386Z,71.47
2017-10-31T00:52:07.084Z,71.26
2017-10-31T00:54:35.589Z,70.47
2017-10-31T00:57:03.174Z,70.25
2017-10-31T00:59:31.513Z,69.96
2017-10-31T01:01:59.290Z,70.68
2017-10-31T01:04:30.918Z,71.49
2017-10-31T01:06:58.484Z,72.28
2017-10-31T01:09:25.996Z,72.11
2017-10-31T01:11:53.620Z,72.29
2017-10-31T01:14:21.222Z,71.72
2017-10-31T01:16:49.163Z,70.96
2017-10-31T01:19:16.780Z,70.43
2017-10-31T01:21:45.544Z,71.44
2017-10-31T01:24:16.628Z,71.31
2017-10-31T01:26:46.080Z,71.77
2017-10-31T01:29:14.856Z,72.65
2017-10-31T01:31:44.059Z,72.97
2017-10-31T01:34:11.783Z,71.86
2017-10-31T01:36:39.764Z,72.10
2017-10-31T01:39:08.046Z,72.70
2017-10-31T01:41:36.364Z,72.39
2017-10-31T01:44:05.577Z,72.02
2017-10-31T01:46:34.354Z,72.05
2017-10-31T01:49:02.159Z,72.24
2017-10-31T01:51:29.911Z,71.76
2017-10-31T01:53:59.464Z,71.21
2017-10-31T01:56:27.302Z,72.07
2017-10-31T01:58:55.819Z,72.82
2017-10-31T02:01:23.576Z,72.99
2017-10-31T02:03:51.296Z,73.49
2017-10-31T02:06:18.911Z,72.28
2017-10-31T02:08:48.037Z,72.49
2017-10-31T02:11:16.533Z,71.94
2017-10-31T02:13:44.928Z,71.29
2017-10-31T02:16:12.596Z,71.09
2017-10-31T02:18:40.453Z,71.34
2017-10-31T02:21:08.289Z,71.78
2017-10-31T02:23:35.917Z,72.09
2017-10-31T02:26:04.448Z,71.54
2017-10-31T02:28:32.270Z,71.91
2017-10-31T02:30:59.983Z,72.42
2017-10-31T02:33:28.672Z,71.30
2017-10-31T02:35:56.375Z,71.43
2017-10-31T02:38:24.544Z,71.71
2017-10-31T02:40:52.145Z,72.41
2017-10-31T02:43:19.775Z,72.81
2017-10-31T02:45:47.343Z,72.23
2017-10-31T02:48:14.888Z,71.44
2017-10-31T02:50:42.530Z,71.59
2017-10-31T02:53:10.073Z,71.93
2017-10-31T02:55:38.309Z,72.03
2017-10-31T02:58:06.626Z,70.93
2017-10-31T03:00:34.407Z,71.02
2017-10-31T03:03:01.982Z,70.40
2017-10-31T03:05:29.617Z,70.19
2017-10-31T03:07:57.195Z,70.75
2017-10-31T03:10:24.910Z,70.67
2017-10-31T03:12:52.511Z,70.77
2017-10-31T03:15:20.088Z,70.93
2017-10-31T03:17:47.885Z,70.50
2017-10-31T03:20:15.521Z,71.38
2017-10-31T03:22:43.081Z,70.93
2017-10-31T03:25:10.673Z,71.26
2017-10-31T03:27:38.205Z,70.92
2017-10-31T03:30:06.554Z,70.64
2017-10-31T03:32:34.319Z,70.55
2017-10-31T03:35:02.312Z,71.07
2017-10-31T03:37:29.805Z,71.53
2017-10-31T03:39:57.456Z,70.98
2017-10-31T03:42:25.040Z,70.66
2017-10-31T03:44:52.662Z,70.74
2017-10-31T03:47:20.212Z,70.33
2017-10-31T03:49:48.863Z,70.44
2017-10-31T03:52:18.193Z,70.16
2017-10-31T03:54:45.898Z,69.69
2017-10-31T03:57:13.478Z,69.60
2017-10-31T03:59:41.055Z,69.77
2017-10-31T04:02:08.636Z,70.24
2017-10-31T04:04:36.204Z,69.99
2017-10-31T04:07:04.463Z,70.14
2017-10-31T04:09:33.067Z,71.19
2017-10-31T04:12:00.696Z,71.56
2017-10-31T04:14:28.433Z,71.23
2017-10-31T04:16:56.070Z,70.98
2017-10-31T04:19:23.705Z,71.17
2017-10-31T04:21:51.224Z,71.34
2017-10-31T04:24:18.880Z,71.73
2017-10-31T04:26:46.367Z,72.59
2017-10-31T04:29:14.082Z,72.65
2017-10-31T04:31:44.998Z,72.55
2017-10-31T04:34:12.509Z,71.85
2017-10-31T04:36:40.655Z,71.72
2017-10-31T04:39:10.525Z,72.74
2017-10-31T04:41:38.200Z,72.18
2017-10-31T04:44:06.452Z,72.21
2017-10-31T04:46:34.021Z,71.53
2017-10-31T04:49:01.652Z,71.54
2017-10-31T04:51:29.208Z,72.18
2017-10-31T04:53:58.046Z,72.46
2017-10-31T04:56:25.607Z,72.19
2017-10-31T04:58:53.144Z,72.17
2017-10-31T05:01:21.575Z,71.29
2017-10-31T05:03:49.156Z,71.22
2017-10-31T05:06:16.712Z,70.90
2017-10-31T05:08:44.350Z,70.82
2017-10-31T05:11:11.901Z,70.38
2017-10-31T05:13:39.482Z,69.63
2017-10-31T05:16:07.088Z,68.82
2017-10-31T05:18:34.818Z,69.10
2017-10-31T05:21:02.380Z,69.49
2017-10-31T05:23:30.017Z,70.11
2017-10-31T05:25:58.307Z,71.23
2017-10-31T05:28:26.604Z,71.41
2017-10-31T05:30:54.386Z,71.56
2017-10-31T05:33:22.921Z,71.58
2017-10-31T05:35:50.587Z,72.44
2017-10-31T05:38:18.576Z,71.93
2017-10-31T05:40:46.610Z,71.46
2017-10-31T05:43:14.134Z,71.22
2017-10-31T05:45:41.787Z,71.42
2017-10-31T05:48:09.458Z,71.49
2017-10-31T05:50:36.963Z,71.06
2017-10-31T05:53:04.447Z,71.45
2017-10-31T05:55:31.929Z,71.47
2017-10-31T05:57:59.452Z,71.00
2017-10-31T06:00:26.947Z,71.46
2017-10-31T06:02:54.434Z,71.79
2017-10-31T06:05:21.946Z,72.22
2017-10-31T06:07:49.442Z,71.20
2017-10-31T06:10:16.993Z,71.61
2017-10-31T06:12:44.513Z,71.75
2017-10-31T06:15:12.135Z,71.74
2017-10-31T06:17:39.675Z,70.86
2017-10-31T06:20:07.233Z,70.65
2017-10-31T06:22:40.890Z,70.65
2017-10-31T06:25:13.922Z,70.23
2017-10-31T06:27:46.910Z,70.86
2017-10-31T06:30:20.183Z,71.31
2017-10-31T06:32:47.705Z,70.97
2017-10-31T06:35:15.218Z,71.37
2017-10-31T06:37:42.774Z,71.56
2017-10-31T06:40:10.417Z,69.82
2017-10-31T06:42:37.973Z,69.51
2017-10-31T06:45:05.588Z,69.77
2017-10-31T06:47:33.126Z,69.10
2017-10-31T06:50:00.773Z,69.60
2017-10-31T06:52:28.330Z,68.96
2017-10-31T06:54:55.898Z,69.18
2017-10-31T06:57:23.397Z,69.66
2017-10-31T06:59:50.911Z,68.60
2017-10-31T07:02:18.450Z,65.77
2017-10-31T07:04:45.950Z,57.44
2017-10-31T07:07:13.787Z,52.36
2017-10-31T07:09:41.327Z,49.21
2017-10-31T07:12:08.885Z,46.63
2017-10-31T07:14:36.421Z,44.85
2017-10-31T07:17:03.979Z,42.77
2017-10-31T07:19:31.500Z,39.43
2017-10-31T07:21:59.696Z,39.23
2017-10-31T07:24:27.231Z,38.77
2017-10-31T07:26:54.769Z,36.71
2017-10-31T07:29:22.311Z,36.13
2017-10-31T07:31:49.879Z,34.95
2017-10-31T07:34:17.428Z,34.95
2017-10-31T07:36:44.952Z,36.17
2017-10-31T07:39:12.548Z,33.16
2017-10-31T07:41:40.097Z,31.54
2017-10-31T07:44:07.622Z,31.33
2017-10-31T07:46:35.174Z,32.09
2017-10-31T07:49:03.813Z,34.23
2017-10-31T07:51:31.495Z,31.52
2017-10-31T07:53:59.090Z,31.31
2017-10-31T07:56:26.748Z,30.44
2017-10-31T07:58:54.340Z,30.14
2017-10-31T08:01:21.935Z,31.75
2017-10-31T08:03:49.495Z,31.67
2017-10-31T08:06:17.075Z,31.39
2017-10-31T08:08:44.739Z,32.59
2017-10-31T08:11:12.313Z,31.54
2017-10-31T08:13:39.855Z,33.77
2017-10-31T08:16:07.371Z,33.43
2017-10-31T08:18:34.942Z,33.44
2017-10-31T08:21:02.460Z,33.74
2017-10-31T08:23:29.986Z,34.67
2017-10-31T08:25:57.525Z,35.72
2017-10-31T08:28:25.014Z,39.13
2017-10-31T08:30:52.593Z,42.87
2017-10-31T08:33:20.154Z,43.25
2017-10-31T08:35:47.710Z,47.40
2017-10-31T08:38:15.259Z,50.57
2017-10-31T08:40:42.883Z,51.08
2017-10-31T08:43:10.412Z,52.54
2017-10-31T08:45:40.142Z,54.23
2017-10-31T08:48:11.511Z,57.71
2017-10-31T08:50:39.054Z,56.50
2017-10-31T08:53:06.698Z,55.40
2017-10-31T08:55:38.769Z,56.11
2017-10-31T08:58:06.309Z,56.10
2017-10-31T09:00:33.865Z,57.94
2017-10-31T09:03:01.585Z,59.43
2017-10-31T09:05:29.074Z,56.84
2017-10-31T09:07:56.620Z,57.39
2017-10-31T09:10:24.187Z,56.31
2017-10-31T09:12:51.730Z,56.66
2017-10-31T09:15:19.308Z,57.26
2017-10-31T09:18:03.794Z,56.32
2017-10-31T10:46:17.507Z,63.05
2017-10-31T10:48:45.038Z,56.19
2017-10-31T10:51:12.507Z,50.89
2017-10-31T10:53:40.048Z,46.39
2017-10-31T10:56:07.563Z,43.35
2017-10-31T10:58:35.084Z,42.98
2017-10-31T11:01:02.597Z,44.04
2017-10-31T11:03:30.078Z,41.07
2017-10-31T11:05:57.570Z,39.82
2017-10-31T11:08:25.158Z,38.80
2017-10-31T11:10:52.670Z,36.99
2017-10-31T11:13:20.187Z,35.36
2017-10-31T11:15:47.670Z,35.42
2017-10-31T11:18:15.185Z,37.39
2017-10-31T11:20:42.711Z,35.16
2017-10-31T11:23:10.196Z,36.92
2017-10-31T11:25:37.683Z,34.74
2017-10-31T11:28:06.225Z,34.19
2017-10-31T11:30:33.728Z,33.18
2017-10-31T11:33:01.209Z,33.17
2017-10-31T11:35:28.755Z,32.96
2017-10-31T11:37:56.317Z,30.72
2017-10-31T11:40:23.777Z,30.79
2017-10-31T11:42:51.288Z,31.13
2017-10-31T11:45:18.772Z,28.87
2017-10-31T11:47:46.285Z,29.99
2017-10-31T11:50:13.780Z,28.95
2017-10-31T11:52:41.258Z,28.23
2017-10-31T11:55:08.806Z,27.98
2017-10-31T11:57:36.286Z,27.21
2017-10-31T12:00:03.795Z,28.63
2017-10-31T12:02:31.306Z,27.39
2017-10-31T12:04:58.826Z,27.95
2017-10-31T12:07:26.344Z,27.25
2017-10-31T12:09:53.833Z,26.57
2017-10-31T12:12:21.329Z,25.74
2017-10-31T12:14:48.880Z,26.18
2017-10-31T12:17:16.417Z,26.56
2017-10-31T12:19:43.926Z,26.87
2017-10-31T12:22:11.429Z,25.46
2017-10-31T12:24:38.983Z,24.83
2017-10-31T12:27:06.477Z,24.50
2017-10-31T12:29:34.209Z,24.93
2017-10-31T12:32:01.733Z,25.67
2017-10-31T12:34:29.311Z,26.00
2017-10-31T12:36:56.910Z,27.27
2017-10-31T12:39:24.464Z,28.76
2017-10-31T12:41:52.060Z,30.22
2017-10-31T12:44:19.557Z,30.62
2017-10-31T12:46:47.054Z,30.95
2017-10-31T12:49:14.554Z,29.88
2017-10-31T12:51:42.112Z,29.98
2017-10-31T12:54:09.774Z,31.09
2017-10-31T12:56:38.098Z,31.73
2017-10-31T12:59:05.657Z,30.71
2017-10-31T13:01:33.135Z,30.68
2017-10-31T13:04:00.640Z,29.59
2017-10-31T13:06:28.171Z,30.25
2017-10-31T13:08:55.630Z,27.75
2017-10-31T13:11:23.179Z,27.58
2017-10-31T13:13:51.115Z,28.09
2017-10-31T13:16:18.633Z,28.14
2017-10-31T13:18:46.451Z,29.15
2017-10-31T13:21:13.973Z,28.41
2017-10-31T13:23:41.452Z,29.87
2017-10-31T13:26:09.264Z,30.85
2017-10-31T13:28:37.285Z,30.67
2017-10-31T13:31:05.144Z,33.08
2017-10-31T13:33:33.175Z,31.77
2017-10-31T13:36:01.056Z,30.85
2017-10-31T13:38:29.096Z,31.20
2017-10-31T13:40:57.583Z,32.19
2017-10-31T13:43:26.190Z,32.01
2017-10-31T13:45:54.437Z,32.48
2017-10-31T13:48:22.273Z,32.74
2017-10-31T13:50:50.719Z,33.64
2017-10-31T13:53:18.318Z,33.62
2017-10-31T13:55:45.869Z,33.49
2017-10-31T13:58:13.411Z,33.69
2017-10-31T14:00:41.868Z,33.58
2017-10-31T14:03:13.181Z,33.83
2017-10-31T14:05:41.311Z,34.92
2017-10-31T14:08:09.237Z,34.95
2017-10-31T14:10:37.061Z,35.45
2017-10-31T14:13:04.670Z,34.56
2017-10-31T14:15:32.275Z,34.06
2017-10-31T14:18:01.136Z,35.81
2017-10-31T14:20:28.982Z,36.59
2017-10-31T14:22:56.680Z,35.96
2017-10-31T14:25:24.858Z,36.30
2017-10-31T14:27:52.392Z,36.37
2017-10-31T14:30:20.006Z,36.37
2017-10-31T14:32:51.260Z,36.45
2017-10-31T14:35:18.781Z,36.43
2017-10-31T14:37:46.541Z,36.40
2017-10-31T14:40:14.045Z,36.87
2017-10-31T14:42:41.655Z,37.04
2017-10-31T14:45:09.169Z,37.64
2017-10-31T14:47:36.743Z,37.30
2017-10-31T14:50:04.284Z,37.64
2017-10-31T14:52:31.828Z,38.41
2017-10-31T14:54:59.581Z,38.02
2017-10-31T14:57:27.279Z,38.03
2017-10-31T14:59:54.857Z,38.73
2017-10-31T15:02:22.397Z,39.13
2017-10-31T15:04:51.250Z,39.04
2017-10-31T15:07:18.966Z,38.87
2017-10-31T15:09:46.505Z,38.81
2017-10-31T15:12:14.061Z,39.86
2017-10-31T15:14:41.748Z,39.93
2017-10-31T15:17:10.019Z,39.71
2017-10-31T15:19:37.642Z,39.94
2017-10-31T15:22:05.329Z,40.08
2017-10-31T15:24:33.332Z,40.36
2017-10-31T15:27:00.926Z,40.63
2017-10-31T15:29:28.498Z,40.70
2017-10-31T15:31:56.402Z,40.46
2017-10-31T15:34:23.983Z,40.46
2017-10-31T15:36:51.557Z,41.46
2017-10-31T15:39:19.104Z,42.51
2017-10-31T15:41:46.671Z,43.45
2017-10-31T15:44:14.253Z,43.66
2017-10-31T15:46:41.817Z,42.97
2017-10-31T15:49:09.368Z,43.03
2017-10-31T15:51:36.951Z,43.85
2017-10-31T15:54:04.549Z,43.29
2017-10-31T15:56:32.110Z,44.40
2017-10-31T15:58:59.680Z,44.92
2017-10-31T16:01:27.228Z,44.61
2017-10-31T16:03:54.841Z,45.09
2017-10-31T16:06:22.461Z,45.59
2017-10-31T16:08:50.361Z,46.29
2017-10-31T16:11:17.937Z,46.40
2017-10-31T16:13:45.524Z,47.23
2017-10-31T16:16:13.107Z,47.39
2017-10-31T16:18:40.677Z,47.54
2017-10-31T16:21:08.229Z,47.80
2017-10-31T16:23:35.758Z,49.03
2017-10-31T16:26:03.283Z,48.95
2017-10-31T16:28:30.839Z,50.36
2017-10-31T16:30:58.397Z,50.29
2017-10-31T16:33:25.944Z,50.51
2017-10-31T16:35:53.584Z,50.82
2017-10-31T16:38:21.079Z,51.29
2017-10-31T16:40:48.597Z,51.61
2017-10-31T16:43:16.956Z,52.49
2017-10-31T16:45:44.505Z,53.08
2017-10-31T16:48:12.079Z,54.15
2017-10-31T16:50:39.625Z,53.88
2017-10-31T16:53:07.182Z,53.84
2017-10-31T16:55:34.709Z,53.83
2017-10-31T16:58:02.247Z,53.86
2017-10-31T17:00:29.831Z,53.75
2017-10-31T17:02:57.384Z,55.11
2017-10-31T17:05:25.220Z,56.03
2017-10-31T17:07:52.827Z,56.10
2017-10-31T17:10:20.988Z,57.61
2017-10-31T17:12:48.529Z,59.84
2017-10-31T17:15:16.155Z,59.16
2017-10-31T17:17:44.095Z,58.66
2017-10-31T17:20:11.680Z,59.36
2017-10-31T17:22:39.283Z,60.05
2017-10-31T17:25:06.851Z,59.48
2017-10-31T17:27:34.437Z,58.36
2017-10-31T17:30:03.828Z,57.85
2017-10-31T17:32:31.426Z,56.46
2017-10-31T17:34:59.107Z,56.77
2017-10-31T17:37:26.900Z,56.90
2017-10-31T17:39:54.739Z,57.63
2017-10-31T17:42:22.387Z,57.55
2017-10-31T17:44:50.142Z,56.82
2017-10-31T17:47:17.855Z,58.15
2017-10-31T17:49:45.408Z,58.55
2017-10-31T17:52:13.545Z,58.86
2017-10-31T17:54:41.155Z,56.54
2017-10-31T17:57:08.848Z,58.12
2017-10-31T17:59:36.530Z,59.02
2017-10-31T18:02:04.294Z,59.55
2017-10-31T18:04:31.855Z,61.69
2017-10-31T18:06:59.405Z,61.75
2017-10-31T18:09:27.164Z,61.57
2017-10-31T18:11:54.946Z,60.89
2017-10-31T18:14:22.571Z,60.27
2017-10-31T18:16:50.794Z,60.43
2017-10-31T18:19:19.177Z,60.95
2017-10-31T18:21:46.739Z,61.62
2017-10-31T18:24:14.599Z,62.39
2017-10-31T18:26:42.170Z,62.96
2017-10-31T18:29:09.832Z,63.52
2017-10-31T18:31:37.523Z,62.90
2017-10-31T18:34:07.244Z,61.77
2017-10-31T18:36:34.792Z,61.46
2017-10-31T18:39:02.414Z,61.61
2017-10-31T18:41:29.945Z,62.17
2017-10-31T18:43:57.564Z,62.99
2017-10-31T18:46:25.152Z,62.55
2017-10-31T18:48:52.839Z,63.94
2017-10-31T18:51:20.622Z,64.06
2017-10-31T18:53:48.356Z,62.05
2017-10-31T18:56:16.132Z,63.54
2017-10-31T18:58:43.749Z,64.13
2017-10-31T19:01:11.497Z,64.33
2017-10-31T19:03:39.065Z,64.01
2017-10-31T19:06:06.749Z,64.92
2017-10-31T19:08:35.054Z,65.51
2017-10-31T19:11:03.730Z,64.99
2017-10-31T19:13:33.180Z,63.42
2017-10-31T19:16:00.929Z,62.73
2017-10-31T19:18:28.545Z,62.44
2017-10-31T19:20:56.092Z,62.00
2017-10-31T19:23:23.811Z,63.10
2017-10-31T19:25:51.354Z,63.34
2017-10-31T19:28:18.929Z,63.70
2017-10-31T19:30:46.510Z,63.74
2017-10-31T19:33:14.139Z,63.25
2017-10-31T19:35:41.885Z,63.48
2017-10-31T19:38:09.504Z,62.66
2017-10-31T19:40:37.115Z,63.08
2017-10-31T19:43:04.641Z,62.93
2017-10-31T19:45:32.444Z,61.98
2017-10-31T19:48:00.202Z,60.84
2017-10-31T19:50:27.962Z,60.85
2017-10-31T19:52:55.606Z,61.61
2017-10-31T19:55:23.619Z,62.85
2017-10-31T19:57:51.239Z,62.90
2017-10-31T20:00:19.104Z,63.35
2017-10-31T20:02:46.715Z,64.27
2017-10-31T20:05:14.912Z,64.99
2017-10-31T20:07:42.597Z,64.52
2017-10-31T20:10:10.526Z,63.57
2017-10-31T20:12:38.682Z,63.49
2017-10-31T20:15:06.305Z,63.44
2017-10-31T20:17:34.224Z,64.37
2017-10-31T20:20:02.114Z,64.07
2017-10-31T20:22:29.833Z,63.98
2017-10-31T20:24:57.408Z,64.35
2017-10-31T20:27:25.068Z,63.52
2017-10-31T20:29:56.321Z,63.62
2017-10-31T20:32:23.901Z,62.58
2017-10-31T20:34:51.474Z,62.55
2017-10-31T20:37:19.354Z,62.35
2017-10-31T20:39:51.592Z,62.94
2017-10-31T20:42:19.267Z,63.44
2017-10-31T20:44:46.904Z,64.07
2017-10-31T20:47:14.512Z,63.99
2017-10-31T20:49:42.134Z,64.50
2017-10-31T20:52:10.525Z,64.40
2017-10-31T20:54:38.121Z,64.00
2017-10-31T20:57:05.980Z,64.94
2017-10-31T20:59:33.770Z,65.26
2017-10-31T21:02:01.363Z,64.98
2017-10-31T21:04:29.002Z,64.59
2017-10-31T21:06:59.580Z,64.17
2017-10-31T21:09:27.456Z,64.65
2017-10-31T21:11:55.112Z,65.11
2017-10-31T21:14:22.678Z,65.53
2017-10-31T21:16:51.176Z,65.22
2017-10-31T21:19:18.875Z,66.82
2017-10-31T21:21:46.547Z,66.00
2017-10-31T21:24:15.978Z,66.64
2017-10-31T21:26:43.576Z,66.67
2017-10-31T21:29:11.193Z,67.00
2017-10-31T21:31:43.549Z,66.50
2017-10-31T21:34:12.196Z,65.62
2017-10-31T21:39:17.101Z,66.07
2017-10-31T21:41:44.717Z,65.95
2017-10-31T21:44:14.098Z,65.85
2017-10-31T21:46:41.858Z,66.08
2017-10-31T21:49:09.575Z,65.62
2017-10-31T21:51:37.366Z,65.55
2017-10-31T21:54:05.870Z,64.07
2017-10-31T21:56:33.525Z,63.62
2017-10-31T21:59:01.134Z,63.06
2017-10-31T22:01:29.133Z,64.32
2017-10-31T22:03:56.898Z,64.53
2017-10-31T22:06:24.516Z,63.55
2017-10-31T22:08:56.364Z,64.14
2017-10-31T22:11:23.951Z,65.83
2017-10-31T22:13:51.941Z,65.84
2017-10-31T22:16:19.843Z,66.20
2017-10-31T22:18:47.561Z,65.94
2017-10-31T22:21:19.071Z,65.47
2017-10-31T22:23:46.826Z,65.96
2017-10-31T22:26:14.603Z,65.56
2017-10-31T22:28:42.222Z,64.42
2017-10-31T22:31:09.899Z,64.34
2017-10-31T22:33:38.416Z,65.00
2017-10-31T22:36:06.075Z,66.62
2017-10-31T22:38:33.793Z,66.85
2017-10-31T22:41:01.406Z,66.61
2017-10-31T22:43:29.064Z,66.53
2017-10-31T22:45:56.641Z,66.14
2017-10-31T22:48:24.237Z,67.77
2017-10-31T22:50:51.852Z,67.62
2017-10-31T22:53:19.513Z,66.96
2017-10-31T22:55:47.372Z,66.13
2017-10-31T22:58:14.962Z,66.02
2017-10-31T23:00:42.605Z,65.75
2017-10-31T23:03:10.270Z,65.64
2017-10-31T23:05:37.979Z,65.61
2017-10-31T23:08:05.574Z,65.58
2017-10-31T23:10:33.193Z,66.03
2017-10-31T23:13:00.897Z,65.58
2017-10-31T23:15:28.617Z,65.85
2017-10-31T23:17:59.343Z,65.30
2017-10-31T23:20:27.000Z,65.29
2017-10-31T23:22:55.010Z,65.73
2017-10-31T23:25:24.695Z,65.68
2017-10-31T23:27:52.689Z,66.03
2017-10-31T23:30:20.551Z,66.58
2017-10-31T23:32:51.506Z,66.77
2017-10-31T23:35:27.363Z,66.17
2017-10-31T23:37:55.902Z,65.85
2017-10-31T23:40:23.878Z,65.19
2017-10-31T23:43:00.077Z,64.92
2017-10-31T23:45:28.193Z,65.21
2017-10-31T23:47:56.070Z,66.59
2017-10-31T23:50:24.386Z,67.43
2017-10-31T23:52:52.152Z,68.09
2017-10-31T23:55:19.804Z,68.45
2017-10-31T23:57:47.735Z,67.01
